sensor_id;sensor_type;location;lat;lon;timestamp;temperature;humidity
49579;DHT22;35483;50.828;3.228;2022-09-20T00:00:40;12.60;94.20
49579;DHT22;35483;50.828;3.228;2022-09-20T00:03:06;12.60;94.40
49579;DHT22;35483;50.828;3.228;2022-09-20T00:05:32;12.60;94.30
49579;DHT22;35483;50.828;3.228;2022-09-20T00:07:58;12.60;94.30
49579;DHT22;35483;50.828;3.228;2022-09-20T00:10:24;12.70;94.00
49579;DHT22;35483;50.828;3.228;2022-09-20T00:12:51;12.70;94.00
49579;DHT22;35483;50.828;3.228;2022-09-20T00:15:17;12.70;94.20
49579;DHT22;35483;50.828;3.228;2022-09-20T00:17:43;12.70;94.30
49579;DHT22;35483;50.828;3.228;2022-09-20T00:20:08;12.70;94.10
49579;DHT22;35483;50.828;3.228;2022-09-20T00:22:34;12.70;94.40
49579;DHT22;35483;50.828;3.228;2022-09-20T00:25:00;12.70;94.30
49579;DHT22;35483;50.828;3.228;2022-09-20T00:27:25;12.70;94.20
49579;DHT22;35483;50.828;3.228;2022-09-20T00:29:51;12.70;94.00
49579;DHT22;35483;50.828;3.228;2022-09-20T00:32:18;12.70;94.10
49579;DHT22;35483;50.828;3.228;2022-09-20T00:34:43;12.70;94.20
49579;DHT22;35483;50.828;3.228;2022-09-20T00:37:27;12.70;94.10
49579;DHT22;35483;50.828;3.228;2022-09-20T00:39:53;12.80;94.20
49579;DHT22;35483;50.828;3.228;2022-09-20T00:42:18;12.80;94.30
49579;DHT22;35483;50.828;3.228;2022-09-20T00:45:00;12.80;94.20
49579;DHT22;35483;50.828;3.228;2022-09-20T00:52:43;12.80;94.30
49579;DHT22;35483;50.828;3.228;2022-09-20T00:55:09;12.80;94.30
49579;DHT22;35483;50.828;3.228;2022-09-20T00:57:35;12.90;94.40
49579;DHT22;35483;50.828;3.228;2022-09-20T01:00:04;12.80;94.20
49579;DHT22;35483;50.828;3.228;2022-09-20T01:02:30;12.80;94.00
49579;DHT22;35483;50.828;3.228;2022-09-20T01:04:57;12.70;94.30
49579;DHT22;35483;50.828;3.228;2022-09-20T01:07:23;12.60;94.50
49579;DHT22;35483;50.828;3.228;2022-09-20T01:09:49;12.60;94.60
49579;DHT22;35483;50.828;3.228;2022-09-20T01:12:21;12.60;94.60
49579;DHT22;35483;50.828;3.228;2022-09-20T01:14:48;12.60;94.90
49579;DHT22;35483;50.828;3.228;2022-09-20T01:17:15;12.60;94.90
49579;DHT22;35483;50.828;3.228;2022-09-20T01:19:46;12.60;94.50
49579;DHT22;35483;50.828;3.228;2022-09-20T01:22:24;12.60;94.70
49579;DHT22;35483;50.828;3.228;2022-09-20T01:24:54;12.60;94.80
49579;DHT22;35483;50.828;3.228;2022-09-20T01:27:37;12.70;94.60
49579;DHT22;35483;50.828;3.228;2022-09-20T01:30:04;12.70;94.70
49579;DHT22;35483;50.828;3.228;2022-09-20T01:32:35;12.80;94.60
49579;DHT22;35483;50.828;3.228;2022-09-20T01:35:01;12.70;94.60
49579;DHT22;35483;50.828;3.228;2022-09-20T01:37:30;12.70;94.60
49579;DHT22;35483;50.828;3.228;2022-09-20T01:40:04;12.70;94.90
49579;DHT22;35483;50.828;3.228;2022-09-20T01:42:35;12.60;94.40
49579;DHT22;35483;50.828;3.228;2022-09-20T01:47:31;12.50;95.10
49579;DHT22;35483;50.828;3.228;2022-09-20T01:50:02;12.40;95.00
49579;DHT22;35483;50.828;3.228;2022-09-20T01:55:07;12.40;95.10
49579;DHT22;35483;50.828;3.228;2022-09-20T02:00:15;12.30;95.00
49579;DHT22;35483;50.828;3.228;2022-09-20T02:12:38;12.10;95.20
49579;DHT22;35483;50.828;3.228;2022-09-20T02:25:45;12.40;94.80
49579;DHT22;35483;50.828;3.228;2022-09-20T02:33:22;12.60;95.10
49579;DHT22;35483;50.828;3.228;2022-09-20T02:46:25;12.90;94.30
49579;DHT22;35483;50.828;3.228;2022-09-20T02:51:19;13.00;95.40
49579;DHT22;35483;50.828;3.228;2022-09-20T02:54:34;13.00;95.30
49579;DHT22;35483;50.828;3.228;2022-09-20T02:59:37;13.00;94.80
49579;DHT22;35483;50.828;3.228;2022-09-20T03:10:24;13.10;94.90
49579;DHT22;35483;50.828;3.228;2022-09-20T03:15:44;13.20;95.30
49579;DHT22;35483;50.828;3.228;2022-09-20T03:18:16;13.10;94.80
49579;DHT22;35483;50.828;3.228;2022-09-20T03:28:44;13.10;95.50
49579;DHT22;35483;50.828;3.228;2022-09-20T03:31:18;13.10;95.30
49579;DHT22;35483;50.828;3.228;2022-09-20T03:43:55;13.20;95.60
49579;DHT22;35483;50.828;3.228;2022-09-20T03:46:25;13.20;95.00
49579;DHT22;35483;50.828;3.228;2022-09-20T04:10:05;13.30;96.00
49579;DHT22;35483;50.828;3.228;2022-09-20T04:20:30;13.40;96.20
49579;DHT22;35483;50.828;3.228;2022-09-20T04:22:56;13.40;96.10
49579;DHT22;35483;50.828;3.228;2022-09-20T04:25:29;13.40;95.90
49579;DHT22;35483;50.828;3.228;2022-09-20T04:28:01;13.40;96.20
49579;DHT22;35483;50.828;3.228;2022-09-20T04:30:30;13.50;96.20
49579;DHT22;35483;50.828;3.228;2022-09-20T04:33:06;13.50;96.40
49579;DHT22;35483;50.828;3.228;2022-09-20T04:38:26;13.50;96.50
49579;DHT22;35483;50.828;3.228;2022-09-20T04:56:00;13.60;96.30
49579;DHT22;35483;50.828;3.228;2022-09-20T05:11:47;13.30;97.10
49579;DHT22;35483;50.828;3.228;2022-09-20T05:25:10;12.90;97.10
49579;DHT22;35483;50.828;3.228;2022-09-20T05:27:42;12.80;97.60
49579;DHT22;35483;50.828;3.228;2022-09-20T05:30:24;12.70;98.10
49579;DHT22;35483;50.828;3.228;2022-09-20T05:35:43;12.60;98.20
49579;DHT22;35483;50.828;3.228;2022-09-20T05:40:49;12.50;97.30
49579;DHT22;35483;50.828;3.228;2022-09-20T05:49:12;12.50;98.50
49579;DHT22;35483;50.828;3.228;2022-09-20T05:54:11;12.50;97.50
49579;DHT22;35483;50.828;3.228;2022-09-20T05:56:58;12.50;98.40
49579;DHT22;35483;50.828;3.228;2022-09-20T05:59:33;12.50;98.30
49579;DHT22;35483;50.828;3.228;2022-09-20T06:14:47;12.60;99.10
49579;DHT22;35483;50.828;3.228;2022-09-20T06:17:20;12.60;98.50
49579;DHT22;35483;50.828;3.228;2022-09-20T06:19:57;12.60;98.40
49579;DHT22;35483;50.828;3.228;2022-09-20T06:22:27;12.60;98.60
49579;DHT22;35483;50.828;3.228;2022-09-20T06:27:35;12.70;98.80
49579;DHT22;35483;50.828;3.228;2022-09-20T06:30:03;12.70;98.70
49579;DHT22;35483;50.828;3.228;2022-09-20T06:32:30;12.70;98.40
49579;DHT22;35483;50.828;3.228;2022-09-20T06:34:56;12.80;96.60
49579;DHT22;35483;50.828;3.228;2022-09-20T06:43:03;12.90;99.50
49579;DHT22;35483;50.828;3.228;2022-09-20T06:45:29;12.90;96.40
49579;DHT22;35483;50.828;3.228;2022-09-20T06:47:56;13.00;96.60
49579;DHT22;35483;50.828;3.228;2022-09-20T06:50:22;13.00;96.80
49579;DHT22;35483;50.828;3.228;2022-09-20T06:52:48;13.00;98.60
49579;DHT22;35483;50.828;3.228;2022-09-20T06:55:16;13.10;97.80
49579;DHT22;35483;50.828;3.228;2022-09-20T06:57:43;13.10;98.00
49579;DHT22;35483;50.828;3.228;2022-09-20T07:00:09;13.20;98.10
49579;DHT22;35483;50.828;3.228;2022-09-20T07:02:36;13.20;94.30
49579;DHT22;35483;50.828;3.228;2022-09-20T07:05:02;13.30;97.90
49579;DHT22;35483;50.828;3.228;2022-09-20T07:07:27;13.30;97.70
49579;DHT22;35483;50.828;3.228;2022-09-20T07:09:53;13.40;97.50
49579;DHT22;35483;50.828;3.228;2022-09-20T07:12:18;13.40;97.00
49579;DHT22;35483;50.828;3.228;2022-09-20T07:14:45;13.40;97.90
49579;DHT22;35483;50.828;3.228;2022-09-20T07:17:10;13.50;98.10
49579;DHT22;35483;50.828;3.228;2022-09-20T07:19:37;13.50;97.30
49579;DHT22;35483;50.828;3.228;2022-09-20T07:22:03;13.60;95.20
49579;DHT22;35483;50.828;3.228;2022-09-20T07:24:28;13.60;94.90
49579;DHT22;35483;50.828;3.228;2022-09-20T07:27:02;13.70;96.20
49579;DHT22;35483;50.828;3.228;2022-09-20T07:29:29;13.80;94.30
49579;DHT22;35483;50.828;3.228;2022-09-20T07:31:55;13.80;95.70
49579;DHT22;35483;50.828;3.228;2022-09-20T07:34:21;13.90;95.30
49579;DHT22;35483;50.828;3.228;2022-09-20T07:36:47;13.90;95.20
49579;DHT22;35483;50.828;3.228;2022-09-20T07:39:12;13.90;94.80
49579;DHT22;35483;50.828;3.228;2022-09-20T07:41:38;14.00;95.10
49579;DHT22;35483;50.828;3.228;2022-09-20T07:44:04;14.00;95.70
49579;DHT22;35483;50.828;3.228;2022-09-20T07:46:48;14.10;93.90
49579;DHT22;35483;50.828;3.228;2022-09-20T07:49:14;14.10;94.70
49579;DHT22;35483;50.828;3.228;2022-09-20T07:51:40;14.20;93.30
49579;DHT22;35483;50.828;3.228;2022-09-20T07:54:05;14.20;93.60
49579;DHT22;35483;50.828;3.228;2022-09-20T07:56:31;14.30;94.20
49579;DHT22;35483;50.828;3.228;2022-09-20T07:58:56;14.40;93.20
49579;DHT22;35483;50.828;3.228;2022-09-20T08:01:22;14.40;93.20
49579;DHT22;35483;50.828;3.228;2022-09-20T08:03:47;14.50;93.00
49579;DHT22;35483;50.828;3.228;2022-09-20T08:06:13;14.50;93.90
49579;DHT22;35483;50.828;3.228;2022-09-20T08:08:41;14.60;93.60
49579;DHT22;35483;50.828;3.228;2022-09-20T08:11:07;14.70;93.20
49579;DHT22;35483;50.828;3.228;2022-09-20T08:13:37;14.70;93.20
49579;DHT22;35483;50.828;3.228;2022-09-20T08:16:03;14.80;93.00
49579;DHT22;35483;50.828;3.228;2022-09-20T08:18:29;14.80;93.00
49579;DHT22;35483;50.828;3.228;2022-09-20T08:20:55;15.00;92.40
49579;DHT22;35483;50.828;3.228;2022-09-20T08:23:20;15.00;92.30
49579;DHT22;35483;50.828;3.228;2022-09-20T08:25:46;15.00;92.50
49579;DHT22;35483;50.828;3.228;2022-09-20T08:28:14;15.10;92.30
49579;DHT22;35483;50.828;3.228;2022-09-20T08:30:39;15.10;92.30
49579;DHT22;35483;50.828;3.228;2022-09-20T08:33:05;15.20;92.30
49579;DHT22;35483;50.828;3.228;2022-09-20T08:35:33;15.30;92.30
49579;DHT22;35483;50.828;3.228;2022-09-20T08:37:59;15.30;91.70
49579;DHT22;35483;50.828;3.228;2022-09-20T08:40:25;15.40;92.10
49579;DHT22;35483;50.828;3.228;2022-09-20T08:42:51;15.40;91.00
49579;DHT22;35483;50.828;3.228;2022-09-20T08:45:20;15.40;91.50
49579;DHT22;35483;50.828;3.228;2022-09-20T08:47:48;15.50;91.10
49579;DHT22;35483;50.828;3.228;2022-09-20T08:50:15;15.60;91.60
49579;DHT22;35483;50.828;3.228;2022-09-20T08:52:42;15.60;90.40
49579;DHT22;35483;50.828;3.228;2022-09-20T08:55:13;15.70;90.60
49579;DHT22;35483;50.828;3.228;2022-09-20T08:57:41;15.80;91.10
49579;DHT22;35483;50.828;3.228;2022-09-20T09:00:50;16.00;90.90
49579;DHT22;35483;50.828;3.228;2022-09-20T09:02:57;16.20;90.60
49579;DHT22;35483;50.828;3.228;2022-09-20T09:05:36;16.30;90.40
49579;DHT22;35483;50.828;3.228;2022-09-20T09:08:08;16.40;90.30
49579;DHT22;35483;50.828;3.228;2022-09-20T09:10:36;16.30;88.60
49579;DHT22;35483;50.828;3.228;2022-09-20T09:13:02;16.40;90.20
49579;DHT22;35483;50.828;3.228;2022-09-20T09:15:34;16.40;91.10
49579;DHT22;35483;50.828;3.228;2022-09-20T09:18:01;16.50;90.70
49579;DHT22;35483;50.828;3.228;2022-09-20T09:20:27;16.50;88.20
49579;DHT22;35483;50.828;3.228;2022-09-20T09:27:58;16.80;88.40
49579;DHT22;35483;50.828;3.228;2022-09-20T09:30:25;17.00;89.20
49579;DHT22;35483;50.828;3.228;2022-09-20T09:32:52;17.20;90.20
49579;DHT22;35483;50.828;3.228;2022-09-20T09:35:23;17.30;90.00
49579;DHT22;35483;50.828;3.228;2022-09-20T09:37:55;17.40;81.80
49579;DHT22;35483;50.828;3.228;2022-09-20T09:40:21;17.50;85.50
49579;DHT22;35483;50.828;3.228;2022-09-20T09:42:50;17.60;83.70
49579;DHT22;35483;50.828;3.228;2022-09-20T09:45:27;17.50;80.80
49579;DHT22;35483;50.828;3.228;2022-09-20T09:47:54;17.40;79.50
49579;DHT22;35483;50.828;3.228;2022-09-20T09:50:21;17.50;83.80
49579;DHT22;35483;50.828;3.228;2022-09-20T09:53:01;17.50;84.30
49579;DHT22;35483;50.828;3.228;2022-09-20T09:55:35;17.60;89.20
49579;DHT22;35483;50.828;3.228;2022-09-20T09:58:05;17.50;86.10
49579;DHT22;35483;50.828;3.228;2022-09-20T10:00:34;17.40;83.60
49579;DHT22;35483;50.828;3.228;2022-09-20T10:08:33;17.30;87.50
49579;DHT22;35483;50.828;3.228;2022-09-20T10:11:05;17.50;87.00
49579;DHT22;35483;50.828;3.228;2022-09-20T10:21:49;18.20;78.00
49579;DHT22;35483;50.828;3.228;2022-09-20T10:24:24;18.30;87.50
49579;DHT22;35483;50.828;3.228;2022-09-20T10:27:11;18.30;80.30
49579;DHT22;35483;50.828;3.228;2022-09-20T10:29:49;18.20;78.10
49579;DHT22;35483;50.828;3.228;2022-09-20T10:37:14;18.00;79.30
49579;DHT22;35483;50.828;3.228;2022-09-20T10:39:41;18.00;78.30
49579;DHT22;35483;50.828;3.228;2022-09-20T10:47:37;18.40;85.30
49579;DHT22;35483;50.828;3.228;2022-09-20T10:52:51;18.70;81.30
49579;DHT22;35483;50.828;3.228;2022-09-20T11:08:34;18.90;83.50
49579;DHT22;35483;50.828;3.228;2022-09-20T11:11:03;19.00;80.70
49579;DHT22;35483;50.828;3.228;2022-09-20T11:13:37;19.00;79.70
49579;DHT22;35483;50.828;3.228;2022-09-20T11:16:07;19.00;77.40
49579;DHT22;35483;50.828;3.228;2022-09-20T11:18:36;19.00;85.20
49579;DHT22;35483;50.828;3.228;2022-09-20T11:21:06;19.20;84.30
49579;DHT22;35483;50.828;3.228;2022-09-20T11:24:20;19.20;78.80
49579;DHT22;35483;50.828;3.228;2022-09-20T11:26:27;19.30;75.30
49579;DHT22;35483;50.828;3.228;2022-09-20T11:29:43;19.20;84.30
49579;DHT22;35483;50.828;3.228;2022-09-20T11:31:45;19.20;75.80
49579;DHT22;35483;50.828;3.228;2022-09-20T11:36:48;19.20;82.30
49579;DHT22;35483;50.828;3.228;2022-09-20T11:39:21;19.30;76.40
49579;DHT22;35483;50.828;3.228;2022-09-20T11:41:50;19.30;81.50
49579;DHT22;35483;50.828;3.228;2022-09-20T11:44:16;19.30;80.80
49579;DHT22;35483;50.828;3.228;2022-09-20T11:49:54;19.10;85.60
49579;DHT22;35483;50.828;3.228;2022-09-20T11:54:41;18.90;76.60
49579;DHT22;35483;50.828;3.228;2022-09-20T11:57:11;18.90;84.80
49579;DHT22;35483;50.828;3.228;2022-09-20T11:59:38;19.00;86.30
49579;DHT22;35483;50.828;3.228;2022-09-20T12:04:49;18.80;78.00
49579;DHT22;35483;50.828;3.228;2022-09-20T12:07:25;18.80;78.90
49579;DHT22;35483;50.828;3.228;2022-09-20T12:09:56;18.60;86.00
49579;DHT22;35483;50.828;3.228;2022-09-20T12:14:52;18.50;83.30
49579;DHT22;35483;50.828;3.228;2022-09-20T12:20:50;18.40;82.90
49579;DHT22;35483;50.828;3.228;2022-09-20T12:22:49;18.40;85.50
49579;DHT22;35483;50.828;3.228;2022-09-20T12:25:34;18.50;81.90
49579;DHT22;35483;50.828;3.228;2022-09-20T12:28:01;18.70;80.90
49579;DHT22;35483;50.828;3.228;2022-09-20T12:30:27;18.70;84.70
49579;DHT22;35483;50.828;3.228;2022-09-20T12:32:57;18.80;84.80
49579;DHT22;35483;50.828;3.228;2022-09-20T12:43:47;19.00;82.90
49579;DHT22;35483;50.828;3.228;2022-09-20T12:46:48;19.10;83.80
49579;DHT22;35483;50.828;3.228;2022-09-20T12:49:10;19.10;84.50
49579;DHT22;35483;50.828;3.228;2022-09-20T12:51:56;19.00;85.20
49579;DHT22;35483;50.828;3.228;2022-09-20T12:54:50;18.90;84.90
49579;DHT22;35483;50.828;3.228;2022-09-20T12:57:23;18.70;84.90
49579;DHT22;35483;50.828;3.228;2022-09-20T12:59:54;18.60;84.50
49579;DHT22;35483;50.828;3.228;2022-09-20T13:02:39;18.70;84.90
49579;DHT22;35483;50.828;3.228;2022-09-20T13:05:28;18.70;86.00
49579;DHT22;35483;50.828;3.228;2022-09-20T13:07:51;18.80;79.00
49579;DHT22;35483;50.828;3.228;2022-09-20T13:10:21;18.70;79.80
49579;DHT22;35483;50.828;3.228;2022-09-20T13:12:48;18.80;85.30
49579;DHT22;35483;50.828;3.228;2022-09-20T13:15:17;18.80;84.70
49579;DHT22;35483;50.828;3.228;2022-09-20T13:17:43;18.70;84.70
49579;DHT22;35483;50.828;3.228;2022-09-20T13:20:14;18.50;86.60
49579;DHT22;35483;50.828;3.228;2022-09-20T13:22:43;18.40;86.80
49579;DHT22;35483;50.828;3.228;2022-09-20T13:25:12;18.40;86.90
49579;DHT22;35483;50.828;3.228;2022-09-20T13:27:49;18.40;86.80
49579;DHT22;35483;50.828;3.228;2022-09-20T13:32:41;18.60;86.00
49579;DHT22;35483;50.828;3.228;2022-09-20T13:37:45;18.60;84.80
49579;DHT22;35483;50.828;3.228;2022-09-20T13:40:22;18.60;84.90
49579;DHT22;35483;50.828;3.228;2022-09-20T13:42:48;18.50;84.70
49579;DHT22;35483;50.828;3.228;2022-09-20T13:45:14;18.40;83.00
49579;DHT22;35483;50.828;3.228;2022-09-20T13:47:41;18.40;86.50
49579;DHT22;35483;50.828;3.228;2022-09-20T13:53:16;18.60;84.50
49579;DHT22;35483;50.828;3.228;2022-09-20T13:55:42;18.60;83.20
49579;DHT22;35483;50.828;3.228;2022-09-20T14:00:47;18.70;86.20
49579;DHT22;35483;50.828;3.228;2022-09-20T14:03:15;18.90;86.20
49579;DHT22;35483;50.828;3.228;2022-09-20T14:05:44;18.90;84.20
49579;DHT22;35483;50.828;3.228;2022-09-20T14:08:14;18.80;85.10
49579;DHT22;35483;50.828;3.228;2022-09-20T14:10:42;18.80;85.60
49579;DHT22;35483;50.828;3.228;2022-09-20T14:13:13;18.80;82.80
49579;DHT22;35483;50.828;3.228;2022-09-20T14:15:43;18.70;80.20
49579;DHT22;35483;50.828;3.228;2022-09-20T14:18:19;18.60;84.80
49579;DHT22;35483;50.828;3.228;2022-09-20T14:20:46;18.70;86.10
49579;DHT22;35483;50.828;3.228;2022-09-20T14:23:23;18.70;86.10
49579;DHT22;35483;50.828;3.228;2022-09-20T14:26:05;18.60;82.50
49579;DHT22;35483;50.828;3.228;2022-09-20T14:28:31;18.50;84.30
49579;DHT22;35483;50.828;3.228;2022-09-20T14:31:06;18.50;85.30
49579;DHT22;35483;50.828;3.228;2022-09-20T14:33:32;18.40;83.20
49579;DHT22;35483;50.828;3.228;2022-09-20T14:36:03;18.30;83.50
49579;DHT22;35483;50.828;3.228;2022-09-20T14:38:29;18.20;84.70
49579;DHT22;35483;50.828;3.228;2022-09-20T14:40:54;18.20;84.10
49579;DHT22;35483;50.828;3.228;2022-09-20T14:43:23;18.20;86.00
49579;DHT22;35483;50.828;3.228;2022-09-20T14:45:56;18.20;84.80
49579;DHT22;35483;50.828;3.228;2022-09-20T14:53:32;18.00;81.10
49579;DHT22;35483;50.828;3.228;2022-09-20T14:58:29;17.90;80.00
49579;DHT22;35483;50.828;3.228;2022-09-20T15:01:00;17.80;80.40
49579;DHT22;35483;50.828;3.228;2022-09-20T15:03:33;17.80;83.70
49579;DHT22;35483;50.828;3.228;2022-09-20T15:06:02;17.80;83.50
49579;DHT22;35483;50.828;3.228;2022-09-20T15:08:28;17.90;83.20
49579;DHT22;35483;50.828;3.228;2022-09-20T15:10:53;18.00;81.20
49579;DHT22;35483;50.828;3.228;2022-09-20T15:13:19;17.90;85.10
49579;DHT22;35483;50.828;3.228;2022-09-20T15:15:47;17.90;79.30
49579;DHT22;35483;50.828;3.228;2022-09-20T15:18:18;17.90;85.30
49579;DHT22;35483;50.828;3.228;2022-09-20T15:20:44;18.10;83.90
49579;DHT22;35483;50.828;3.228;2022-09-20T15:23:09;18.00;84.50
49579;DHT22;35483;50.828;3.228;2022-09-20T15:25:35;17.90;82.00
49579;DHT22;35483;50.828;3.228;2022-09-20T15:28:00;17.90;83.30
49579;DHT22;35483;50.828;3.228;2022-09-20T15:30:26;17.90;81.70
49579;DHT22;35483;50.828;3.228;2022-09-20T15:32:52;18.00;84.70
49579;DHT22;35483;50.828;3.228;2022-09-20T15:35:17;18.00;84.30
49579;DHT22;35483;50.828;3.228;2022-09-20T15:37:43;18.00;83.70
49579;DHT22;35483;50.828;3.228;2022-09-20T15:40:09;18.10;84.20
49579;DHT22;35483;50.828;3.228;2022-09-20T15:42:35;18.10;82.10
49579;DHT22;35483;50.828;3.228;2022-09-20T15:45:07;18.10;83.40
49579;DHT22;35483;50.828;3.228;2022-09-20T15:47:35;18.00;84.80
49579;DHT22;35483;50.828;3.228;2022-09-20T15:50:01;18.00;81.40
49579;DHT22;35483;50.828;3.228;2022-09-20T15:52:31;18.10;81.80
49579;DHT22;35483;50.828;3.228;2022-09-20T15:54:58;18.10;82.20
49579;DHT22;35483;50.828;3.228;2022-09-20T15:57:25;18.10;82.20
49579;DHT22;35483;50.828;3.228;2022-09-20T15:59:51;18.10;84.80
49579;DHT22;35483;50.828;3.228;2022-09-20T16:02:16;18.10;83.10
49579;DHT22;35483;50.828;3.228;2022-09-20T16:04:42;18.10;83.50
49579;DHT22;35483;50.828;3.228;2022-09-20T16:07:07;18.10;85.70
49579;DHT22;35483;50.828;3.228;2022-09-20T16:09:34;18.10;80.60
49579;DHT22;35483;50.828;3.228;2022-09-20T16:12:02;18.10;85.60
49579;DHT22;35483;50.828;3.228;2022-09-20T16:14:28;18.20;85.30
49579;DHT22;35483;50.828;3.228;2022-09-20T16:16:54;18.20;80.30
49579;DHT22;35483;50.828;3.228;2022-09-20T16:19:19;18.20;82.50
49579;DHT22;35483;50.828;3.228;2022-09-20T16:21:46;18.30;82.00
49579;DHT22;35483;50.828;3.228;2022-09-20T16:24:14;18.30;79.40
49579;DHT22;35483;50.828;3.228;2022-09-20T16:26:40;18.20;78.40
49579;DHT22;35483;50.828;3.228;2022-09-20T16:29:05;18.30;82.50
49579;DHT22;35483;50.828;3.228;2022-09-20T16:31:42;18.30;79.00
49579;DHT22;35483;50.828;3.228;2022-09-20T16:34:18;18.30;78.90
49579;DHT22;35483;50.828;3.228;2022-09-20T16:36:47;18.20;84.30
49579;DHT22;35483;50.828;3.228;2022-09-20T16:39:14;18.10;86.00
49579;DHT22;35483;50.828;3.228;2022-09-20T16:41:39;18.00;79.30
49579;DHT22;35483;50.828;3.228;2022-09-20T16:44:05;17.90;82.40
49579;DHT22;35483;50.828;3.228;2022-09-20T16:46:31;17.90;83.30
49579;DHT22;35483;50.828;3.228;2022-09-20T16:48:57;17.80;82.10
49579;DHT22;35483;50.828;3.228;2022-09-20T16:51:28;17.80;86.40
49579;DHT22;35483;50.828;3.228;2022-09-20T16:53:55;17.70;83.30
49579;DHT22;35483;50.828;3.228;2022-09-20T16:56:21;17.70;85.20
49579;DHT22;35483;50.828;3.228;2022-09-20T16:58:47;17.70;87.00
49579;DHT22;35483;50.828;3.228;2022-09-20T17:01:13;17.60;83.80
49579;DHT22;35483;50.828;3.228;2022-09-20T17:03:38;17.50;84.40
49579;DHT22;35483;50.828;3.228;2022-09-20T17:06:07;17.40;85.10
49579;DHT22;35483;50.828;3.228;2022-09-20T17:08:33;17.40;87.40
49579;DHT22;35483;50.828;3.228;2022-09-20T17:11:04;17.40;85.80
49579;DHT22;35483;50.828;3.228;2022-09-20T17:13:30;17.30;86.70
49579;DHT22;35483;50.828;3.228;2022-09-20T17:15:59;17.20;86.20
49579;DHT22;35483;50.828;3.228;2022-09-20T17:18:25;17.10;86.30
49579;DHT22;35483;50.828;3.228;2022-09-20T17:20:50;17.00;86.10
49579;DHT22;35483;50.828;3.228;2022-09-20T17:23:16;16.90;88.30
49579;DHT22;35483;50.828;3.228;2022-09-20T17:25:42;16.90;87.10
49579;DHT22;35483;50.828;3.228;2022-09-20T17:28:08;16.80;87.40
49579;DHT22;35483;50.828;3.228;2022-09-20T17:30:34;16.80;88.60
49579;DHT22;35483;50.828;3.228;2022-09-20T17:33:00;16.70;88.20
49579;DHT22;35483;50.828;3.228;2022-09-20T17:35:25;16.60;88.60
49579;DHT22;35483;50.828;3.228;2022-09-20T17:37:53;16.50;89.30
49579;DHT22;35483;50.828;3.228;2022-09-20T17:40:19;16.50;89.60
49579;DHT22;35483;50.828;3.228;2022-09-20T17:42:44;16.40;90.00
49579;DHT22;35483;50.828;3.228;2022-09-20T17:45:12;16.30;90.20
49579;DHT22;35483;50.828;3.228;2022-09-20T17:47:37;16.20;90.20
49579;DHT22;35483;50.828;3.228;2022-09-20T17:50:07;16.20;90.60
49579;DHT22;35483;50.828;3.228;2022-09-20T17:52:33;16.10;90.60
49579;DHT22;35483;50.828;3.228;2022-09-20T17:54:58;16.00;90.50
49579;DHT22;35483;50.828;3.228;2022-09-20T17:57:24;16.00;90.80
49579;DHT22;35483;50.828;3.228;2022-09-20T17:59:49;16.00;90.90
49579;DHT22;35483;50.828;3.228;2022-09-20T18:02:15;15.90;91.00
49579;DHT22;35483;50.828;3.228;2022-09-20T18:04:40;15.90;91.30
49579;DHT22;35483;50.828;3.228;2022-09-20T18:07:06;15.90;91.30
49579;DHT22;35483;50.828;3.228;2022-09-20T18:09:32;15.80;91.50
49579;DHT22;35483;50.828;3.228;2022-09-20T18:11:57;15.80;91.50
49579;DHT22;35483;50.828;3.228;2022-09-20T18:14:27;15.70;91.60
49579;DHT22;35483;50.828;3.228;2022-09-20T18:16:54;15.70;91.50
49579;DHT22;35483;50.828;3.228;2022-09-20T18:19:20;15.70;91.70
49579;DHT22;35483;50.828;3.228;2022-09-20T18:21:47;15.70;91.70
49579;DHT22;35483;50.828;3.228;2022-09-20T18:24:12;15.60;91.60
49579;DHT22;35483;50.828;3.228;2022-09-20T18:26:38;15.60;91.90
49579;DHT22;35483;50.828;3.228;2022-09-20T18:29:05;15.50;91.90
49579;DHT22;35483;50.828;3.228;2022-09-20T18:31:35;15.50;92.00
49579;DHT22;35483;50.828;3.228;2022-09-20T18:34:01;15.50;92.50
49579;DHT22;35483;50.828;3.228;2022-09-20T18:36:28;15.40;92.10
49579;DHT22;35483;50.828;3.228;2022-09-20T18:38:54;15.40;92.30
49579;DHT22;35483;50.828;3.228;2022-09-20T18:41:24;15.30;92.70
49579;DHT22;35483;50.828;3.228;2022-09-20T18:43:50;15.30;92.80
49579;DHT22;35483;50.828;3.228;2022-09-20T18:46:16;15.30;93.70
49579;DHT22;35483;50.828;3.228;2022-09-20T18:48:45;15.20;93.00
49579;DHT22;35483;50.828;3.228;2022-09-20T18:51:10;15.20;93.30
49579;DHT22;35483;50.828;3.228;2022-09-20T18:53:36;15.10;93.00
49579;DHT22;35483;50.828;3.228;2022-09-20T18:56:06;15.10;92.80
49579;DHT22;35483;50.828;3.228;2022-09-20T18:58:32;15.10;93.00
49579;DHT22;35483;50.828;3.228;2022-09-20T19:03:34;15.10;92.90
49579;DHT22;35483;50.828;3.228;2022-09-20T19:06:03;15.10;92.80
49579;DHT22;35483;50.828;3.228;2022-09-20T19:08:39;15.10;93.20
49579;DHT22;35483;50.828;3.228;2022-09-20T19:11:09;15.10;93.30
49579;DHT22;35483;50.828;3.228;2022-09-20T19:13:38;15.00;93.60
49579;DHT22;35483;50.828;3.228;2022-09-20T19:16:26;15.00;93.60
49579;DHT22;35483;50.828;3.228;2022-09-20T19:21:57;14.90;93.20
49579;DHT22;35483;50.828;3.228;2022-09-20T19:26:52;14.90;94.10
49579;DHT22;35483;50.828;3.228;2022-09-20T19:29:19;14.80;94.00
49579;DHT22;35483;50.828;3.228;2022-09-20T19:31:45;14.80;93.80
49579;DHT22;35483;50.828;3.228;2022-09-20T19:34:13;14.70;93.70
49579;DHT22;35483;50.828;3.228;2022-09-20T19:44:39;14.60;94.10
49579;DHT22;35483;50.828;3.228;2022-09-20T19:50:02;14.60;94.10
49579;DHT22;35483;50.828;3.228;2022-09-20T19:52:28;14.50;94.30
49579;DHT22;35483;50.828;3.228;2022-09-20T19:54:54;14.50;94.40
49579;DHT22;35483;50.828;3.228;2022-09-20T19:57:20;14.50;94.40
49579;DHT22;35483;50.828;3.228;2022-09-20T19:59:47;14.40;94.80
49579;DHT22;35483;50.828;3.228;2022-09-20T20:02:13;14.40;95.00
49579;DHT22;35483;50.828;3.228;2022-09-20T20:04:39;14.30;94.70
49579;DHT22;35483;50.828;3.228;2022-09-20T20:07:19;14.30;95.00
49579;DHT22;35483;50.828;3.228;2022-09-20T20:09:51;14.20;95.00
49579;DHT22;35483;50.828;3.228;2022-09-20T20:25:16;14.20;94.90
49579;DHT22;35483;50.828;3.228;2022-09-20T20:27:43;14.20;94.80
49579;DHT22;35483;50.828;3.228;2022-09-20T20:30:09;14.20;94.50
49579;DHT22;35483;50.828;3.228;2022-09-20T20:32:35;14.20;94.50
49579;DHT22;35483;50.828;3.228;2022-09-20T20:35:01;14.20;94.50
49579;DHT22;35483;50.828;3.228;2022-09-20T20:37:26;14.20;94.40
49579;DHT22;35483;50.828;3.228;2022-09-20T20:39:52;14.20;94.20
49579;DHT22;35483;50.828;3.228;2022-09-20T20:42:18;14.20;94.50
49579;DHT22;35483;50.828;3.228;2022-09-20T20:44:45;14.10;94.30
49579;DHT22;35483;50.828;3.228;2022-09-20T20:47:12;14.20;94.50
49579;DHT22;35483;50.828;3.228;2022-09-20T20:49:37;14.10;95.10